Time;durP1;ratioP1;P1;durP2;ratioP2;P2;SDS_P1;SDS_P2;PMS_P1;PMS_P2;Temp;Humidity;BMP_temperature;BMP_pressure;BME280_temperature;BME280_humidity;BME280_pressure;Samples;Min_cycle;Max_cycle;Signal;HPM_P1;HPM_P2
2022/04/21 00:00:34;;;;;;;24.33;23.13;;;;;;;;;;5071138;28;20281;-60
2022/04/21 00:03:00;;;;;;;20.85;19.95;;;;;;;;;;5071388;28;20174;-60
2022/04/21 00:05:26;;;;;;;26.13;24.83;;;;;;;;;;5071168;28;20175;-59
2022/04/21 00:07:53;;;;;;;20.83;19.95;;;;;;;;;;5071316;28;20273;-61
2022/04/21 00:10:19;;;;;;;22.80;21.77;;;;;;;;;;5070886;28;20230;-61
2022/04/21 00:12:45;;;;;;;19.65;18.85;;;;;;;;;;5071194;28;20192;-61
2022/04/21 00:15:11;;;;;;;16.40;15.80;;;;;;;;;;5071191;28;20618;-60
2022/04/21 00:17:37;;;;;;;22.27;21.27;;;;;;;;;;5071260;28;20167;-61
2022/04/21 00:20:04;;;;;;;20.13;19.27;;;;;;;;;;5070944;28;20187;-61
2022/04/21 00:25:14;;;;;;;15.68;15.07;;;;;;;;;;5071450;28;20253;-61
2022/04/21 00:27:41;;;;;;;16.67;16.08;;;;;;;;;;5071167;28;20170;-61
2022/04/21 00:30:08;;;;;;;7.95;7.72;;;;;;;;;;5070824;28;20207;-61
2022/04/21 00:32:34;;;;;;;19.98;19.13;;;;;;;;;;5071286;28;20661;-61
2022/04/21 00:35:01;;;;;;;18.10;17.40;;;;;;;;;;5070965;28;20198;-61
2022/04/21 00:37:27;;;;;;;13.15;12.75;;;;;;;;;;5071020;28;20202;-61
2022/04/21 00:39:53;;;;;;;13.95;13.45;;;;;;;;;;5070534;28;20214;-61
2022/04/21 00:42:19;;;;;;;15.07;14.57;;;;;;;;;;5070800;28;20650;-61
2022/04/21 00:44:45;;;;;;;12.30;11.90;;;;;;;;;;5070901;28;20424;-61
2022/04/21 00:47:11;;;;;;;16.57;15.93;;;;;;;;;;5070842;28;20466;-61
2022/04/21 00:49:38;;;;;;;15.60;15.07;;;;;;;;;;5070122;28;20468;-61
2022/04/21 00:52:04;;;;;;;10.15;9.85;;;;;;;;;;5070429;28;20206;-62
2022/04/21 00:54:31;;;;;;;14.50;14.00;;;;;;;;;;5070680;28;20206;-59
2022/04/21 00:56:57;;;;;;;13.23;12.77;;;;;;;;;;5070924;28;20174;-60
2022/04/21 00:59:24;;;;;;;9.68;9.38;;;;;;;;;;5070818;28;20689;-61
2022/04/21 01:04:34;;;;;;;11.50;11.18;;;;;;;;;;5071108;28;20331;-62
2022/04/21 01:07:00;;;;;;;14.85;14.35;;;;;;;;;;5073021;28;20206;-60
2022/04/21 01:09:26;;;;;;;15.30;14.80;;;;;;;;;;5075279;28;20206;-60
2022/04/21 01:11:52;;;;;;;12.50;12.10;;;;;;;;;;5074055;28;20172;-61
2022/04/21 01:14:19;;;;;;;12.90;12.50;;;;;;;;;;5074119;28;20171;-60
2022/04/21 01:16:46;;;;;;;12.73;12.32;;;;;;;;;;5074473;28;20175;-61
2022/04/21 01:19:12;;;;;;;13.85;13.35;;;;;;;;;;5074210;28;20251;-61
2022/04/21 01:21:38;;;;;;;8.25;8.05;;;;;;;;;;5073874;28;20175;-61
2022/04/21 01:24:04;;;;;;;9.65;9.35;;;;;;;;;;5074028;28;20174;-61
2022/04/21 01:26:34;;;;;;;10.93;10.63;;;;;;;;;;5074104;28;20163;-59
2022/04/21 01:29:01;;;;;;;17.25;16.42;;;;;;;;;;5073386;28;20174;-61
2022/04/21 01:31:27;;;;;;;10.40;10.10;;;;;;;;;;5073772;28;20213;-61
2022/04/21 01:33:53;;;;;;;10.10;9.80;;;;;;;;;;5074126;28;20178;-61
2022/04/21 01:36:19;;;;;;;10.30;10.00;;;;;;;;;;5073816;28;20973;-61
2022/04/21 01:41:30;;;;;;;6.65;6.45;;;;;;;;;;5067816;28;20404;-59
2022/04/21 01:43:56;;;;;;;7.50;7.30;;;;;;;;;;5073571;28;20183;-62
2022/04/21 01:46:22;;;;;;;9.88;9.57;;;;;;;;;;5073266;28;20424;-61
2022/04/21 01:48:48;;;;;;;14.43;13.90;;;;;;;;;;5067732;28;20239;-62
2022/04/21 01:51:14;;;;;;;2.30;2.20;;;;;;;;;;5073268;28;20277;-60
2022/04/21 01:53:40;;;;;;;13.10;12.60;;;;;;;;;;5073599;28;20178;-60
2022/04/21 01:56:06;;;;;;;12.47;12.07;;;;;;;;;;5073446;28;20488;-60
2022/04/21 01:58:32;;;;;;;11.40;11.10;;;;;;;;;;5073625;28;20408;-61
2022/04/21 02:00:58;;;;;;;13.23;12.83;;;;;;;;;;5073029;28;20683;-61
2022/04/21 02:03:24;;;;;;;14.85;14.35;;;;;;;;;;5073317;28;20464;-61
2022/04/21 02:05:50;;;;;;;13.15;12.75;;;;;;;;;;5073417;28;20175;-61
2022/04/21 02:08:16;;;;;;;13.90;13.40;;;;;;;;;;5073248;28;20599;-61
2022/04/21 02:10:42;;;;;;;16.42;15.77;;;;;;;;;;5072711;28;20560;-60
2022/04/21 02:13:08;;;;;;;21.77;20.77;;;;;;;;;;5073182;28;20203;-61
2022/04/21 02:15:34;;;;;;;12.95;12.55;;;;;;;;;;5073082;28;20226;-61
2022/04/21 02:18:04;;;;;;;15.10;14.57;;;;;;;;;;5072757;28;20667;-61
2022/04/21 02:20:30;;;;;;;16.52;15.93;;;;;;;;;;5072756;28;20432;-61
2022/04/21 02:22:56;;;;;;;17.55;16.85;;;;;;;;;;5072941;28;20653;-61
2022/04/21 02:25:22;;;;;;;21.33;20.33;;;;;;;;;;5072921;28;20228;-62
2022/04/21 02:27:49;;;;;;;17.48;16.73;;;;;;;;;;5072853;28;20176;-61
2022/04/21 02:30:17;;;;;;;18.33;17.52;;;;;;;;;;5072638;28;20233;-61
2022/04/21 02:32:43;;;;;;;6.00;5.80;;;;;;;;;;5072818;28;20181;-61
2022/04/21 02:35:10;;;;;;;6.57;6.38;;;;;;;;;;5072734;28;20695;-61
2022/04/21 02:37:36;;;;;;;3.22;3.13;;;;;;;;;;5072600;28;20189;-61
2022/04/21 02:40:02;;;;;;;2.88;2.78;;;;;;;;;;5072410;28;20190;-61
2022/04/21 02:42:29;;;;;;;8.30;8.10;;;;;;;;;;5072497;28;20162;-61
2022/04/21 02:44:55;;;;;;;7.88;7.68;;;;;;;;;;5072798;28;20549;-60
2022/04/21 02:47:21;;;;;;;9.55;9.32;;;;;;;;;;5074309;28;20181;-61
2022/04/21 02:49:48;;;;;;;7.10;6.93;;;;;;;;;;5076574;28;20190;-61
2022/04/21 02:52:14;;;;;;;9.50;9.20;;;;;;;;;;5073080;28;20603;-60
2022/04/21 02:57:27;;;;;;;11.35;10.98;;;;;;;;;;5072609;28;20201;-60
2022/04/21 02:59:56;;;;;;;9.20;8.90;;;;;;;;;;5072135;28;20186;-60
2022/04/21 03:02:23;;;;;;;10.13;9.82;;;;;;;;;;5072032;28;20195;-58
2022/04/21 03:04:51;;;;;;;12.23;11.82;;;;;;;;;;5072081;28;20181;-60
2022/04/21 03:07:17;;;;;;;10.15;9.85;;;;;;;;;;5072107;28;20230;-58
2022/04/21 03:09:43;;;;;;;11.20;10.90;;;;;;;;;;5071950;28;20211;-60
2022/04/21 03:12:10;;;;;;;13.95;13.45;;;;;;;;;;5071842;28;20585;-60
2022/04/21 03:14:36;;;;;;;16.20;15.57;;;;;;;;;;5071922;28;20226;-60
2022/04/21 03:17:02;;;;;;;12.07;11.68;;;;;;;;;;5071957;28;20174;-61
2022/04/21 03:19:28;;;;;;;13.80;13.30;;;;;;;;;;5071765;28;20226;-61
2022/04/21 03:24:39;;;;;;;8.55;8.35;;;;;;;;;;5054202;28;20497;-60
2022/04/21 03:27:05;;;;;;;5.50;5.40;;;;;;;;;;5071812;28;20239;-59
2022/04/21 03:29:32;;;;;;;8.63;8.32;;;;;;;;;;5070870;28;20440;-59
2022/04/21 03:31:58;;;;;;;8.75;8.45;;;;;;;;;;5071425;28;20668;-59
2022/04/21 03:34:24;;;;;;;8.82;8.55;;;;;;;;;;5071699;28;20178;-59
2022/04/21 03:36:50;;;;;;;5.60;5.40;;;;;;;;;;5071716;28;20540;-60
2022/04/21 03:39:17;;;;;;;7.07;6.88;;;;;;;;;;5071518;28;20187;-61
2022/04/21 03:41:43;;;;;;;2.92;2.83;;;;;;;;;;5071436;28;20166;-59
2022/04/21 03:44:11;;;;;;;5.07;4.97;;;;;;;;;;5071544;28;20208;-61
2022/04/21 03:46:40;;;;;;;4.90;4.80;;;;;;;;;;5071493;28;20248;-61
2022/04/21 03:49:07;;;;;;;5.32;5.13;;;;;;;;;;5071428;28;20297;-61
2022/04/21 03:51:33;;;;;;;6.10;5.95;;;;;;;;;;5071273;28;20253;-61
2022/04/21 03:53:59;;;;;;;4.70;4.60;;;;;;;;;;5071508;28;20220;-61
2022/04/21 03:56:27;;;;;;;6.87;6.67;;;;;;;;;;5071399;28;20205;-59
2022/04/21 03:58:53;;;;;;;7.55;7.35;;;;;;;;;;5071281;28;20408;-60
2022/04/21 04:01:19;;;;;;;5.95;5.75;;;;;;;;;;5071132;28;20166;-61
2022/04/21 04:03:45;;;;;;;7.80;7.50;;;;;;;;;;5071400;28;20224;-61
2022/04/21 04:11:41;;;;;;;5.25;5.05;;;;;;;;;;5071339;28;20336;-61
2022/04/21 04:14:07;;;;;;;4.60;4.43;;;;;;;;;;5071346;28;20171;-60
2022/04/21 04:16:34;;;;;;;5.90;5.70;;;;;;;;;;5071171;28;20216;-61
2022/04/21 04:19:00;;;;;;;7.53;7.30;;;;;;;;;;5071056;28;20495;-61
2022/04/21 04:21:26;;;;;;;8.32;8.13;;;;;;;;;;5071075;28;20600;-60
2022/04/21 04:23:52;;;;;;;4.10;4.00;;;;;;;;;;5071176;28;20617;-61
2022/04/21 04:26:18;;;;;;;8.65;8.45;;;;;;;;;;5071072;28;20676;-60
2022/04/21 04:28:44;;;;;;;6.27;6.07;;;;;;;;;;5071177;28;20189;-59
2022/04/21 04:31:10;;;;;;;4.50;4.37;;;;;;;;;;5070840;28;20780;-61
2022/04/21 04:33:36;;;;;;;6.40;6.20;;;;;;;;;;5071017;28;20458;-60
2022/04/21 04:36:03;;;;;;;8.02;7.72;;;;;;;;;;5070928;28;20486;-62
2022/04/21 04:38:29;;;;;;;7.80;7.60;;;;;;;;;;5071017;28;20252;-61
2022/04/21 04:40:55;;;;;;;2.92;2.83;;;;;;;;;;5073000;28;20200;-61
2022/04/21 04:43:22;;;;;;;4.13;4.03;;;;;;;;;;5074927;28;20190;-61
2022/04/21 04:48:33;;;;;;;3.78;3.67;;;;;;;;;;5075070;28;20303;-60
2022/04/21 04:51:00;;;;;;;3.57;3.47;;;;;;;;;;5074348;28;20203;-61
2022/04/21 04:53:26;;;;;;;3.85;3.75;;;;;;;;;;5074841;28;20444;-61
2022/04/21 04:55:51;;;;;;;1.65;1.65;;;;;;;;;;5074562;28;20253;-61
2022/04/21 04:58:18;;;;;;;3.20;3.10;;;;;;;;;;5074655;28;20171;-60
2022/04/21 05:00:47;;;;;;;3.25;3.15;;;;;;;;;;5074112;28;20425;-61
2022/04/21 05:03:13;;;;;;;3.45;3.35;;;;;;;;;;5074451;28;20179;-61
2022/04/21 05:05:39;;;;;;;4.45;4.35;;;;;;;;;;5073961;28;20174;-61
2022/04/21 05:08:06;;;;;;;4.53;4.43;;;;;;;;;;5074363;28;20177;-61
2022/04/21 05:10:32;;;;;;;3.90;3.80;;;;;;;;;;5073981;28;20951;-61
2022/04/21 05:12:58;;;;;;;9.53;9.23;;;;;;;;;;5073287;28;20190;-60
2022/04/21 05:15:25;;;;;;;10.13;9.82;;;;;;;;;;5074097;28;20448;-61
2022/04/21 05:17:51;;;;;;;12.48;12.05;;;;;;;;;;5074022;28;20186;-61
2022/04/21 05:20:17;;;;;;;13.45;12.88;;;;;;;;;;5073751;28;20221;-61
2022/04/21 05:22:47;;;;;;;9.60;9.30;;;;;;;;;;5074057;28;20253;-60
2022/04/21 05:25:13;;;;;;;10.23;9.93;;;;;;;;;;5067388;28;20186;-60
2022/04/21 05:27:39;;;;;;;7.90;7.70;;;;;;;;;;5069514;28;20224;-61
2022/04/21 05:32:53;;;;;;;1.75;1.75;;;;;;;;;;5073929;28;20231;-61
2022/04/21 05:35:19;;;;;;;8.23;7.95;;;;;;;;;;5073964;28;20683;-61
2022/04/21 05:37:45;;;;;;;10.95;10.55;;;;;;;;;;5073757;28;20205;-61
2022/04/21 05:40:11;;;;;;;11.68;11.18;;;;;;;;;;5073367;28;20198;-58
2022/04/21 05:42:41;;;;;;;8.68;8.43;;;;;;;;;;5071734;28;20250;-61
2022/04/21 05:45:08;;;;;;;8.77;8.57;;;;;;;;;;5073200;28;20700;-61
2022/04/21 05:47:36;;;;;;;10.73;10.43;;;;;;;;;;5073704;28;20547;-61
2022/04/21 05:50:02;;;;;;;7.50;7.30;;;;;;;;;;5055811;28;20227;-61
2022/04/21 05:52:30;;;;;;;7.03;6.82;;;;;;;;;;5072650;28;20170;-61
2022/04/21 05:54:56;;;;;;;4.60;4.45;;;;;;;;;;5073328;28;20312;-61
2022/04/21 05:57:22;;;;;;;10.63;10.23;;;;;;;;;;5073230;28;20180;-61
2022/04/21 05:59:48;;;;;;;10.10;9.80;;;;;;;;;;5073367;28;20247;-61
2022/04/21 06:02:14;;;;;;;9.03;8.73;;;;;;;;;;5073124;28;20174;-61
2022/04/21 06:04:40;;;;;;;4.28;4.18;;;;;;;;;;5073361;28;20750;-61
2022/04/21 06:07:06;;;;;;;4.90;4.80;;;;;;;;;;5073156;28;20178;-61
2022/04/21 06:09:32;;;;;;;2.03;1.92;;;;;;;;;;5072954;28;20274;-61
2022/04/21 06:11:58;;;;;;;2.35;2.25;;;;;;;;;;5072754;28;20173;-60
2022/04/21 06:14:24;;;;;;;1.77;1.77;;;;;;;;;;5065714;28;20181;-61
2022/04/21 06:16:50;;;;;;;2.97;2.88;;;;;;;;;;5072946;28;20281;-62
2022/04/21 06:19:16;;;;;;;2.60;2.50;;;;;;;;;;5054893;28;20686;-61
2022/04/21 06:21:42;;;;;;;1.57;1.57;;;;;;;;;;5072438;28;20200;-61
2022/04/21 06:24:09;;;;;;;1.65;1.65;;;;;;;;;;5071554;28;20892;-61
2022/04/21 06:26:36;;;;;;;1.75;1.75;;;;;;;;;;5072599;28;20214;-61
2022/04/21 06:29:02;;;;;;;2.00;1.90;;;;;;;;;;5074063;28;20182;-62
2022/04/21 06:31:29;;;;;;;1.90;1.80;;;;;;;;;;5073098;28;20208;-60
2022/04/21 06:33:55;;;;;;;1.70;1.70;;;;;;;;;;5072828;28;20496;-59
2022/04/21 06:36:21;;;;;;;1.80;1.80;;;;;;;;;;5072261;28;20724;-60
2022/04/21 06:38:47;;;;;;;1.50;1.50;;;;;;;;;;5072033;28;20176;-61
2022/04/21 06:41:13;;;;;;;1.90;1.90;;;;;;;;;;5071519;28;20402;-60
2022/04/21 06:49:08;;;;;;;1.77;1.77;;;;;;;;;;5072216;28;20263;-63
2022/04/21 06:51:34;;;;;;;1.73;1.70;;;;;;;;;;5072253;28;20588;-60
2022/04/21 06:54:00;;;;;;;1.60;1.60;;;;;;;;;;5063717;28;20500;-63
2022/04/21 06:56:27;;;;;;;1.80;1.80;;;;;;;;;;5067239;28;20215;-59
2022/04/21 06:58:53;;;;;;;2.17;2.08;;;;;;;;;;5069227;28;20410;-61
2022/04/21 07:01:19;;;;;;;1.50;1.50;;;;;;;;;;5064460;28;20539;-59
2022/04/21 07:03:45;;;;;;;1.73;1.73;;;;;;;;;;5070611;28;20175;-60
2022/04/21 07:06:12;;;;;;;1.50;1.50;;;;;;;;;;5070444;28;20892;-60
2022/04/21 07:08:38;;;;;;;1.45;1.45;;;;;;;;;;5072088;28;20175;-60
2022/04/21 07:11:04;;;;;;;1.50;1.50;;;;;;;;;;5071639;28;20206;-58
2022/04/21 07:13:30;;;;;;;1.63;1.63;;;;;;;;;;5071587;28;20181;-58
2022/04/21 07:15:56;;;;;;;1.45;1.45;;;;;;;;;;5071617;28;20195;-59
2022/04/21 07:18:22;;;;;;;1.58;1.58;;;;;;;;;;5071920;28;20171;-58
2022/04/21 07:20:48;;;;;;;2.00;1.90;;;;;;;;;;5071468;28;20280;-59
2022/04/21 07:23:14;;;;;;;1.92;1.92;;;;;;;;;;5071847;28;20202;-57
2022/04/21 07:25:42;;;;;;;1.97;1.90;;;;;;;;;;5071593;28;20638;-63
2022/04/21 07:28:08;;;;;;;1.40;1.40;;;;;;;;;;5071528;28;20405;-62
2022/04/21 07:30:34;;;;;;;1.88;1.83;;;;;;;;;;5071195;28;20191;-59
2022/04/21 07:33:00;;;;;;;1.67;1.67;;;;;;;;;;5070565;28;20258;-62
2022/04/21 07:35:26;;;;;;;1.77;1.77;;;;;;;;;;5071183;28;20480;-60
2022/04/21 07:37:52;;;;;;;2.03;2.03;;;;;;;;;;5071029;28;20916;-61
2022/04/21 07:40:20;;;;;;;3.60;3.40;;;;;;;;;;5071288;28;20195;-59
2022/04/21 07:42:47;;;;;;;5.57;5.38;;;;;;;;;;5071666;28;20402;-58
2022/04/21 07:45:13;;;;;;;8.48;8.27;;;;;;;;;;5071346;28;20596;-60
2022/04/21 07:47:39;;;;;;;6.88;6.68;;;;;;;;;;5071422;28;20210;-60
2022/04/21 07:50:06;;;;;;;10.50;10.17;;;;;;;;;;5070554;28;20658;-58
2022/04/21 07:55:18;;;;;;;13.40;13.00;;;;;;;;;;5068105;28;20241;-60
2022/04/21 07:57:45;;;;;;;13.88;13.40;;;;;;;;;;5057640;28;20183;-59
2022/04/21 08:00:12;;;;;;;12.10;11.55;;;;;;;;;;5062235;28;20198;-59
2022/04/21 08:02:42;;;;;;;12.98;12.57;;;;;;;;;;5067553;28;20183;-61
2022/04/21 08:05:09;;;;;;;12.32;11.93;;;;;;;;;;5067165;28;20229;-61
2022/04/21 08:07:36;;;;;;;20.75;19.80;;;;;;;;;;5069736;28;20191;-61
2022/04/21 08:10:03;;;;;;;11.65;11.35;;;;;;;;;;5069972;28;20260;-62
2022/04/21 08:12:29;;;;;;;10.67;10.37;;;;;;;;;;5070477;28;20201;-60
2022/04/21 08:14:55;;;;;;;6.90;6.70;;;;;;;;;;5071601;28;20448;-59
2022/04/21 08:17:21;;;;;;;4.77;4.67;;;;;;;;;;5075043;28;20819;-60
2022/04/21 08:19:47;;;;;;;5.60;5.50;;;;;;;;;;5075064;28;20494;-60
2022/04/21 08:22:13;;;;;;;2.43;2.43;;;;;;;;;;5074982;28;20460;-60
2022/04/21 08:32:53;;;;;;;4.47;4.37;;;;;;;;;;5074554;28;20445;-61
2022/04/21 08:35:19;;;;;;;6.57;6.40;;;;;;;;;;5073698;28;20864;-62
2022/04/21 08:37:45;;;;;;;5.80;5.70;;;;;;;;;;5074292;28;20784;-62
2022/04/21 08:40:11;;;;;;;19.07;18.43;;;;;;;;;;5074260;28;20428;-61
2022/04/21 08:42:39;;;;;;;57.27;55.50;;;;;;;;;;5074492;28;20813;-62
2022/04/21 08:45:05;;;;;;;133.90;129.93;;;;;;;;;;5074438;28;20409;-61
2022/04/21 08:47:32;;;;;;;142.10;137.80;;;;;;;;;;5074421;28;20434;-61
2022/04/21 08:50:11;;;;;;;226.80;219.90;;;;;;;;;;5074762;28;20400;-61
2022/04/21 08:52:38;;;;;;;232.17;225.17;;;;;;;;;;5074520;28;20389;-62
2022/04/21 08:55:04;;;;;;;259.67;251.77;;;;;;;;;;5074227;28;20473;-61
2022/04/21 08:57:31;;;;;;;541.27;520.30;;;;;;;;;;5074269;28;21025;-61
2022/04/21 08:59:57;;;;;;;169.67;164.57;;;;;;;;;;5074362;28;20509;-61
2022/04/21 09:02:40;;;;;;;432.17;416.47;;;;;;;;;;5074099;28;20460;-61
2022/04/21 09:05:06;;;;;;;192.13;186.33;;;;;;;;;;5074393;28;20394;-61
2022/04/21 09:07:32;;;;;;;319.27;308.80;;;;;;;;;;5074193;28;20405;-61
2022/04/21 09:10:05;;;;;;;442.70;426.60;;;;;;;;;;5073954;28;20456;-62
2022/04/21 09:12:31;;;;;;;383.47;370.07;;;;;;;;;;5074101;28;20413;-61
2022/04/21 09:14:57;;;;;;;623.73;598.73;;;;;;;;;;5074071;28;20530;-60
2022/04/21 09:17:23;;;;;;;219.50;212.87;;;;;;;;;;5073899;28;20923;-61
2022/04/21 09:19:59;;;;;;;356.27;343.77;;;;;;;;;;5073880;28;20442;-60
2022/04/21 09:22:26;;;;;;;529.87;509.67;;;;;;;;;;5073929;28;20393;-61
2022/04/21 09:24:55;;;;;;;535.77;515.20;;;;;;;;;;5074020;28;20463;-60
2022/04/21 09:27:21;;;;;;;385.47;371.87;;;;;;;;;;5072558;28;20507;-60
2022/04/21 09:29:49;;;;;;;512.80;493.27;;;;;;;;;;5073457;28;20566;-61
2022/04/21 09:32:17;;;;;;;349.77;337.77;;;;;;;;;;5073612;28;20471;-59
2022/04/21 09:34:50;;;;;;;411.70;397.00;;;;;;;;;;5073746;28;20484;-61
2022/04/21 09:37:20;;;;;;;339.87;328.47;;;;;;;;;;5073847;28;20390;-61
2022/04/21 09:39:53;;;;;;;575.20;553.07;;;;;;;;;;5073507;28;20431;-61
2022/04/21 09:42:26;;;;;;;517.13;497.77;;;;;;;;;;5071955;28;20425;-59
2022/04/21 09:47:36;;;;;;;578.90;556.40;;;;;;;;;;5074010;28;20747;-60
2022/04/21 09:50:12;;;;;;;565.60;543.30;;;;;;;;;;5073419;28;20413;-62
2022/04/21 09:52:38;;;;;;;439.80;423.60;;;;;;;;;;5073360;28;20405;-61
2022/04/21 09:55:40;;;;;;;447.47;431.13;;;;;;;;;;5073105;28;20471;-62
2022/04/21 09:58:10;;;;;;;290.73;281.47;;;;;;;;;;4972066;28;20918;-62
2022/04/21 10:00:37;;;;;;;280.30;271.40;;;;;;;;;;5055869;28;20518;-62
2022/04/21 10:03:04;;;;;;;177.87;172.77;;;;;;;;;;5055282;28;20387;-60
2022/04/21 10:05:31;;;;;;;177.67;172.33;;;;;;;;;;5073278;28;20431;-62
2022/04/21 10:08:00;;;;;;;204.23;198.17;;;;;;;;;;5073303;28;20496;-60
2022/04/21 10:10:27;;;;;;;102.37;99.27;;;;;;;;;;5072538;28;20451;-61
2022/04/21 10:12:57;;;;;;;99.43;96.47;;;;;;;;;;5073020;28;20418;-62
2022/04/21 10:15:24;;;;;;;112.23;108.90;;;;;;;;;;5072748;28;20453;-62
2022/04/21 10:17:50;;;;;;;73.40;71.23;;;;;;;;;;5072912;28;20410;-61
2022/04/21 10:20:16;;;;;;;79.07;76.67;;;;;;;;;;5073974;28;20433;-62
2022/04/21 10:22:43;;;;;;;83.90;81.40;;;;;;;;;;5072901;28;20459;-62
2022/04/21 10:25:09;;;;;;;119.30;115.80;;;;;;;;;;5073001;28;20481;-62
2022/04/21 10:27:35;;;;;;;127.20;123.40;;;;;;;;;;5072777;28;21002;-62
2022/04/21 10:30:01;;;;;;;100.30;97.30;;;;;;;;;;5072742;28;20836;-62
2022/04/21 10:32:46;;;;;;;50.13;48.67;;;;;;;;;;5070794;28;20957;-62
2022/04/21 10:35:18;;;;;;;58.93;57.13;;;;;;;;;;5072317;28;20489;-62
2022/04/21 10:37:44;;;;;;;63.33;61.37;;;;;;;;;;5072478;28;20422;-60
2022/04/21 10:40:14;;;;;;;49.83;48.20;;;;;;;;;;5072246;28;20526;-61
2022/04/21 10:42:58;;;;;;;67.80;65.63;;;;;;;;;;5072498;28;20380;-61
2022/04/21 10:45:24;;;;;;;78.13;75.53;;;;;;;;;;5072035;28;20409;-60
2022/04/21 10:48:09;;;;;;;90.30;87.20;;;;;;;;;;5071458;28;20392;-61
2022/04/21 10:50:36;;;;;;;104.67;101.17;;;;;;;;;;5071793;28;20471;-59
2022/04/21 10:58:34;;;;;;;112.67;108.97;;;;;;;;;;5072197;28;20408;-62
2022/04/21 11:01:17;;;;;;;142.57;137.87;;;;;;;;;;5071748;28;20392;-61
2022/04/21 11:03:44;;;;;;;168.77;163.23;;;;;;;;;;5071702;28;20377;-62
2022/04/21 11:06:11;;;;;;;115.60;111.97;;;;;;;;;;5071768;28;20395;-60
2022/04/21 11:08:37;;;;;;;110.40;106.87;;;;;;;;;;5071557;28;20444;-61
2022/04/21 11:11:03;;;;;;;118.53;114.80;;;;;;;;;;5071359;28;20441;-61
2022/04/21 11:13:43;;;;;;;147.33;142.50;;;;;;;;;;5069546;28;20764;-61
2022/04/21 11:16:09;;;;;;;412.50;395.37;;;;;;;;;;5071365;28;20532;-61
2022/04/21 11:18:35;;;;;;;490.77;467.93;;;;;;;;;;5071338;28;20441;-60
2022/04/21 11:21:27;;;;;;;480.63;458.07;;;;;;;;;;5071185;28;20494;-60
2022/04/21 11:23:52;;;;;;;406.73;387.13;;;;;;;;;;5071587;28;20405;-61
2022/04/21 11:26:25;;;;;;;437.43;414.83;;;;;;;;;;5071381;28;20421;-62
2022/04/21 11:28:51;;;;;;;389.20;369.97;;;;;;;;;;5071189;28;20459;-61
2022/04/21 11:31:20;;;;;;;462.50;433.80;;;;;;;;;;5071007;28;20431;-60
2022/04/21 11:33:46;;;;;;;518.80;473.90;;;;;;;;;;5071441;28;20408;-63
2022/04/21 11:36:13;;;;;;;484.93;440.87;;;;;;;;;;5071504;28;20499;-61
2022/04/21 11:38:41;;;;;;;241.27;231.47;;;;;;;;;;5071361;28;20835;-60
2022/04/21 11:41:09;;;;;;;505.83;459.53;;;;;;;;;;5070418;28;20461;-61
2022/04/21 11:43:35;;;;;;;502.10;466.43;;;;;;;;;;5071300;28;20409;-62
2022/04/21 11:46:03;;;;;;;154.13;148.67;;;;;;;;;;5071497;28;20420;-61
2022/04/21 11:48:30;;;;;;;76.47;73.87;;;;;;;;;;5071382;28;20399;-63
2022/04/21 11:50:57;;;;;;;96.47;93.27;;;;;;;;;;5070462;28;20763;-60
2022/04/21 11:53:23;;;;;;;109.67;105.93;;;;;;;;;;5071116;28;20465;-61
2022/04/21 11:55:50;;;;;;;122.43;118.20;;;;;;;;;;5071164;28;20456;-63
2022/04/21 11:58:27;;;;;;;121.53;117.33;;;;;;;;;;5071407;28;20415;-62
2022/04/21 12:06:32;;;;;;;85.73;82.73;;;;;;;;;;5071575;28;20391;-62
2022/04/21 12:08:59;;;;;;;56.43;54.43;;;;;;;;;;5071164;28;20409;-62
2022/04/21 12:11:26;;;;;;;35.20;34.10;;;;;;;;;;5070999;28;20405;-62
2022/04/21 12:13:52;;;;;;;42.97;41.57;;;;;;;;;;5071654;28;20868;-62
2022/04/21 12:16:37;;;;;;;69.83;67.23;;;;;;;;;;5071034;28;20432;-61
2022/04/21 12:19:15;;;;;;;85.90;82.67;;;;;;;;;;5071147;28;20429;-62
2022/04/21 12:21:41;;;;;;;90.37;86.97;;;;;;;;;;5070899;28;20879;-61
2022/04/21 12:24:20;;;;;;;54.37;52.33;;;;;;;;;;5071220;28;20405;-57
2022/04/21 12:26:52;;;;;;;78.17;75.17;;;;;;;;;;5070651;28;20383;-61
2022/04/21 12:29:19;;;;;;;97.13;93.27;;;;;;;;;;5071179;28;20432;-62
2022/04/21 12:31:55;;;;;;;113.67;109.07;;;;;;;;;;5070810;28;20943;-61
2022/04/21 12:34:22;;;;;;;98.93;95.17;;;;;;;;;;5071105;28;20455;-62
2022/04/21 12:36:55;;;;;;;91.53;88.03;;;;;;;;;;5069747;28;20457;-63
2022/04/21 12:39:21;;;;;;;92.30;88.73;;;;;;;;;;5070221;28;20802;-61
2022/04/21 12:41:47;;;;;;;79.80;76.77;;;;;;;;;;5070544;28;20402;-62
2022/04/21 12:44:15;;;;;;;113.73;109.23;;;;;;;;;;5070555;28;20451;-62
2022/04/21 12:46:41;;;;;;;101.67;97.67;;;;;;;;;;5070704;28;20896;-62
2022/04/21 12:49:08;;;;;;;113.73;109.30;;;;;;;;;;5070714;28;20463;-62
2022/04/21 12:51:34;;;;;;;85.50;82.27;;;;;;;;;;5070571;28;20448;-62
2022/04/21 12:54:00;;;;;;;120.37;115.83;;;;;;;;;;5070679;28;20411;-62
2022/04/21 12:56:36;;;;;;;98.00;94.53;;;;;;;;;;5070884;28;20518;-61
2022/04/21 12:59:03;;;;;;;116.37;112.07;;;;;;;;;;5070708;28;20418;-61
2022/04/21 13:01:29;;;;;;;115.90;111.50;;;;;;;;;;5072027;28;20924;-60
2022/04/21 13:03:55;;;;;;;108.80;104.73;;;;;;;;;;5074375;28;20799;-62
2022/04/21 13:06:28;;;;;;;117.33;112.83;;;;;;;;;;5074230;28;20800;-63
2022/04/21 13:08:55;;;;;;;127.57;122.43;;;;;;;;;;5071634;28;20417;-61
2022/04/21 13:11:21;;;;;;;143.70;137.83;;;;;;;;;;5072546;28;20421;-63
2022/04/21 13:13:47;;;;;;;136.50;131.10;;;;;;;;;;5073826;28;20410;-62
2022/04/21 13:16:13;;;;;;;82.30;79.20;;;;;;;;;;5074093;28;20476;-62
2022/04/21 13:18:39;;;;;;;78.27;75.43;;;;;;;;;;5074076;28;20372;-62
2022/04/21 13:23:50;;;;;;;157.30;150.93;;;;;;;;;;5073907;28;20745;-62
2022/04/21 13:26:16;;;;;;;117.57;112.87;;;;;;;;;;5073979;28;20398;-61
2022/04/21 13:28:42;;;;;;;121.43;116.73;;;;;;;;;;5074008;28;20397;-61
2022/04/21 13:33:54;;;;;;;63.50;61.17;;;;;;;;;;5074392;28;20432;-60
2022/04/21 13:36:20;;;;;;;42.07;40.67;;;;;;;;;;5073991;28;20449;-61
2022/04/21 13:38:46;;;;;;;43.10;41.70;;;;;;;;;;5074008;28;20409;-62
2022/04/21 13:41:12;;;;;;;42.83;41.43;;;;;;;;;;5073570;28;20400;-61
2022/04/21 13:43:38;;;;;;;36.27;35.07;;;;;;;;;;5073987;28;20429;-59
2022/04/21 13:46:04;;;;;;;38.27;37.03;;;;;;;;;;5073837;28;20922;-60
2022/04/21 13:48:30;;;;;;;61.67;59.47;;;;;;;;;;5073778;28;20881;-61
2022/04/21 13:50:56;;;;;;;49.17;47.40;;;;;;;;;;5055616;28;20788;-61
2022/04/21 13:53:22;;;;;;;51.23;49.43;;;;;;;;;;5073601;28;20404;-57
2022/04/21 13:55:49;;;;;;;90.47;86.97;;;;;;;;;;5073445;28;20455;-62
2022/04/21 13:58:15;;;;;;;86.27;82.87;;;;;;;;;;5073523;28;20475;-59
2022/04/21 14:00:45;;;;;;;90.20;86.70;;;;;;;;;;5073107;28;20485;-58
2022/04/21 14:03:12;;;;;;;111.90;107.40;;;;;;;;;;5073365;28;20403;-61
2022/04/21 14:05:39;;;;;;;173.17;165.67;;;;;;;;;;5073275;28;20761;-62
2022/04/21 14:08:05;;;;;;;232.27;221.67;;;;;;;;;;5073218;28;20456;-60
2022/04/21 14:10:31;;;;;;;356.20;324.87;;;;;;;;;;5072808;28;20491;-62
2022/04/21 14:12:57;;;;;;;372.73;342.53;;;;;;;;;;5072596;28;20785;-61
2022/04/21 14:15:24;;;;;;;376.23;343.63;;;;;;;;;;5073105;28;20455;-60
2022/04/21 14:17:51;;;;;;;354.30;323.83;;;;;;;;;;5073033;28;20417;-62
2022/04/21 14:20:17;;;;;;;177.53;169.63;;;;;;;;;;5072620;28;20465;-62
2022/04/21 14:22:43;;;;;;;341.77;321.17;;;;;;;;;;5073038;28;20431;-63
2022/04/21 14:25:09;;;;;;;384.57;347.17;;;;;;;;;;5072921;28;20862;-62
2022/04/21 14:27:35;;;;;;;392.50;354.40;;;;;;;;;;5072744;28;20412;-62
2022/04/21 14:30:03;;;;;;;386.67;348.97;;;;;;;;;;5072602;28;20421;-62
2022/04/21 14:32:29;;;;;;;135.47;129.90;;;;;;;;;;5072552;28;20443;-62
2022/04/21 14:34:55;;;;;;;160.10;153.00;;;;;;;;;;5072518;28;20445;-62
2022/04/21 14:45:35;;;;;;;367.83;327.53;;;;;;;;;;5072550;28;20449;-62
2022/04/21 14:48:01;;;;;;;315.57;287.43;;;;;;;;;;5072493;28;20429;-62
2022/04/21 14:50:27;;;;;;;124.37;118.97;;;;;;;;;;5071971;28;20419;-62
2022/04/21 14:52:53;;;;;;;112.30;107.53;;;;;;;;;;5072397;28;20480;-62
2022/04/21 14:55:19;;;;;;;84.17;80.97;;;;;;;;;;5072273;28;20518;-62
2022/04/21 14:57:45;;;;;;;106.20;101.83;;;;;;;;;;5072258;28;20802;-62
2022/04/21 15:00:11;;;;;;;93.53;89.57;;;;;;;;;;5071273;28;20442;-59
2022/04/21 15:02:38;;;;;;;119.77;114.67;;;;;;;;;;5072191;28;20374;-60
2022/04/21 15:05:04;;;;;;;100.40;96.20;;;;;;;;;;5072057;28;20945;-59
2022/04/21 15:07:30;;;;;;;134.73;128.93;;;;;;;;;;5072324;28;20944;-61
2022/04/21 15:09:56;;;;;;;137.83;131.80;;;;;;;;;;5071824;28;20457;-61
2022/04/21 15:12:22;;;;;;;278.47;262.47;;;;;;;;;;5071870;28;20413;-62
2022/04/21 15:14:49;;;;;;;341.97;308.70;;;;;;;;;;5071928;28;20505;-62
2022/04/21 15:17:15;;;;;;;365.63;304.20;;;;;;;;;;5072160;28;20488;-62
2022/04/21 15:19:44;;;;;;;119.83;114.63;;;;;;;;;;5071914;28;20437;-62
2022/04/21 15:22:10;;;;;;;241.13;227.97;;;;;;;;;;5071684;28;20416;-62
2022/04/21 15:24:36;;;;;;;372.23;318.27;;;;;;;;;;5071069;28;20405;-62
2022/04/21 15:27:02;;;;;;;375.23;318.43;;;;;;;;;;5070109;28;20507;-62